Time,TemperatureF,DewpointF,PressureIn,WindDirection,WindDirectionDegrees,WindSpeedMPH,WindSpeedGustMPH,Humidity,HourlyPrecipIn,Conditions,Clouds,dailyrainin,SolarRadiationWatts/m^2,SoftwareType,DateUTC
2013-01-21 00:16:00,61.6,55.0,30.07,NNW,341,0.0,0.0,78,0.00,,,0.00,0,weatherlink.com 1.10,2013-01-21 05:16:00,
2013-01-21 00:31:00,62.0,55.0,30.06,NNW,341,0.0,1.0,78,0.00,,,0.00,0,weatherlink.com 1.10,2013-01-21 05:31:00,
2013-01-21 01:01:00,62.2,55.0,30.06,NNW,341,0.0,1.0,78,0.00,,,0.00,0,weatherlink.com 1.10,2013-01-21 06:01:00,
2013-01-21 01:31:00,62.3,55.0,30.06,NNW,341,0.0,1.0,78,0.00,,,0.00,0,weatherlink.com 1.10,2013-01-21 06:31:00,
2013-01-21 01:46:00,62.3,55.0,30.05,NNW,341,0.0,0.0,78,0.00,,,0.00,0,weatherlink.com 1.10,2013-01-21 06:46:00,
2013-01-21 02:01:00,62.2,56.0,30.05,NNW,341,0.0,1.0,79,0.00,,,0.00,0,weatherlink.com 1.10,2013-01-21 07:01:00,
2013-01-21 02:31:00,62.0,56.0,30.05,NNW,341,0.0,0.0,80,0.00,,,0.00,0,weatherlink.com 1.10,2013-01-21 07:31:00,
2013-01-21 03:01:00,61.7,56.0,30.04,North,360,0.0,1.0,81,0.00,,,0.00,0,weatherlink.com 1.10,2013-01-21 08:01:00,
2013-01-21 03:17:00,61.7,56.0,30.04,NNW,341,0.0,0.0,81,0.00,,,0.00,0,weatherlink.com 1.10,2013-01-21 08:17:00,
2013-01-21 03:31:00,61.9,56.0,30.04,NNW,341,0.0,1.0,81,0.00,,,0.00,0,weatherlink.com 1.10,2013-01-21 08:31:00,
2013-01-21 03:47:00,62.2,56.0,30.03,NNW,340,0.0,2.0,80,0.00,,,0.00,0,weatherlink.com 1.10,2013-01-21 08:47:00,
2013-01-21 04:01:00,62.3,56.0,30.03,NNW,341,0.0,1.0,80,0.00,,,0.00,0,weatherlink.com 1.10,2013-01-21 09:01:00,
2013-01-21 04:31:00,62.0,56.0,30.02,NNW,341,0.0,0.0,80,0.00,,,0.00,0,weatherlink.com 1.10,2013-01-21 09:31:00,
2013-01-21 04:46:00,61.9,56.0,30.02,NNW,341,0.0,0.0,81,0.00,,,0.00,0,weatherlink.com 1.10,2013-01-21 09:46:00,
2013-01-21 05:01:00,61.8,56.0,30.02,NNW,341,0.0,0.0,82,0.00,,,0.00,0,weatherlink.com 1.10,2013-01-21 10:01:00,
2013-01-21 05:16:00,61.6,56.0,30.02,NNW,341,0.0,0.0,82,0.00,,,0.00,0,weatherlink.com 1.10,2013-01-21 10:16:00,
2013-01-21 05:32:00,61.6,56.0,30.02,NNW,341,0.0,0.0,83,0.00,,,0.00,0,weatherlink.com 1.10,2013-01-21 10:32:00,
2013-01-21 05:47:00,61.7,57.0,30.02,NNW,341,0.0,1.0,83,0.00,,,0.00,0,weatherlink.com 1.10,2013-01-21 10:47:00,
2013-01-21 06:02:00,61.8,57.0,30.02,NNW,341,0.0,1.0,83,0.00,,,0.00,0,weatherlink.com 1.10,2013-01-21 11:02:00,
2013-01-21 06:17:00,61.8,57.0,30.03,NNW,341,0.0,0.0,83,0.00,,,0.00,0,weatherlink.com 1.10,2013-01-21 11:17:00,
2013-01-21 06:32:00,61.6,56.0,30.03,North,360,0.0,0.0,83,0.00,,,0.00,0,weatherlink.com 1.10,2013-01-21 11:32:00,
2013-01-21 06:47:00,61.4,57.0,30.03,NNW,340,0.0,0.0,84,0.00,,,0.00,0,weatherlink.com 1.10,2013-01-21 11:47:00,
2013-01-21 07:02:00,61.2,56.0,30.04,NNW,341,0.0,0.0,84,0.00,,,0.00,0,weatherlink.com 1.10,2013-01-21 12:02:00,
2013-01-21 07:17:00,61.1,56.0,30.04,NNW,341,0.0,0.0,84,0.00,,,0.00,0,weatherlink.com 1.10,2013-01-21 12:17:00,
2013-01-21 07:32:00,61.1,56.0,30.04,NNW,342,0.0,0.0,84,0.00,,,0.00,11,weatherlink.com 1.10,2013-01-21 12:32:00,
2013-01-21 07:47:00,61.3,57.0,30.04,NNW,341,0.0,3.0,84,0.00,,,0.00,16,weatherlink.com 1.10,2013-01-21 12:47:00,
2013-01-21 08:02:00,61.6,57.0,30.05,North,360,0.0,2.0,84,0.00,,,0.00,37,weatherlink.com 1.10,2013-01-21 13:02:00,
2013-01-21 08:17:00,62.1,57.0,30.06,North,360,0.0,2.0,83,0.00,,,0.00,62,weatherlink.com 1.10,2013-01-21 13:17:00,
2013-01-21 08:32:00,62.7,57.0,30.06,North,360,0.0,3.0,82,0.00,,,0.00,33,weatherlink.com 1.10,2013-01-21 13:32:00,
2013-01-21 08:47:00,63.1,57.0,30.07,NW,319,1.0,2.0,81,0.00,,,0.00,56,weatherlink.com 1.10,2013-01-21 13:47:00,
2013-01-21 09:02:00,63.4,57.0,30.08,NNW,341,0.0,2.0,80,0.00,,,0.00,84,weatherlink.com 1.10,2013-01-21 14:02:00,
2013-01-21 09:17:00,63.4,58.0,30.07,North,5,0.0,3.0,81,0.00,,,0.00,77,weatherlink.com 1.10,2013-01-21 14:17:00,
2013-01-21 09:32:00,63.9,58.0,30.07,North,9,1.0,2.0,80,0.00,,,0.00,156,weatherlink.com 1.10,2013-01-21 14:32:00,
2013-01-21 09:47:00,63.9,57.0,30.07,North,5,0.0,4.0,79,0.00,,,0.00,81,weatherlink.com 1.10,2013-01-21 14:47:00,
2013-01-21 10:02:00,64.0,58.0,30.08,North,5,0.0,1.0,82,0.03,,,0.03,74,weatherlink.com 1.10,2013-01-21 15:02:00,
2013-01-21 10:17:00,63.8,59.0,30.08,North,5,0.0,1.0,85,0.03,,,0.03,114,weatherlink.com 1.10,2013-01-21 15:17:00,
2013-01-21 10:32:00,63.5,59.0,30.08,North,5,0.0,1.0,86,0.03,,,0.03,74,weatherlink.com 1.10,2013-01-21 15:32:00,
2013-01-21 10:47:00,63.6,60.0,30.08,North,360,0.0,1.0,87,0.03,,,0.03,116,weatherlink.com 1.10,2013-01-21 15:47:00,
2013-01-21 11:02:00,63.4,60.0,30.08,North,360,0.0,1.0,87,0.01,,,0.04,121,weatherlink.com 1.10,2013-01-21 16:02:00,
2013-01-21 11:17:00,63.9,61.0,30.08,North,360,0.0,2.0,89,0.02,,,0.05,216,weatherlink.com 1.10,2013-01-21 16:17:00,
2013-01-21 11:32:00,64.2,61.0,30.07,North,360,0.0,1.0,88,0.02,,,0.05,125,weatherlink.com 1.10,2013-01-21 16:32:00,
2013-01-21 11:47:00,65.4,61.0,30.07,North,9,0.0,2.0,85,0.02,,,0.05,197,weatherlink.com 1.10,2013-01-21 16:47:00,
2013-01-21 12:02:00,66.8,61.0,30.06,North,5,0.0,1.0,82,0.00,,,0.05,202,weatherlink.com 1.10,2013-01-21 17:02:00,
2013-01-21 12:17:00,67.5,61.0,30.05,North,9,1.0,3.0,79,0.00,,,0.05,213,weatherlink.com 1.10,2013-01-21 17:17:00,
2013-01-21 12:32:00,68.3,61.0,30.04,North,9,0.0,2.0,77,0.00,,,0.05,353,weatherlink.com 1.10,2013-01-21 17:32:00,
2013-01-21 12:47:00,71.3,61.0,30.03,North,9,0.0,3.0,70,0.00,,,0.05,403,weatherlink.com 1.10,2013-01-21 17:47:00,
2013-01-21 13:02:00,71.0,60.0,30.02,SSE,162,0.0,3.0,69,0.00,,,0.05,274,weatherlink.com 1.10,2013-01-21 18:02:00,
2013-01-21 13:32:00,71.8,61.0,30.01,SW,219,0.0,3.0,68,0.00,,,0.05,355,weatherlink.com 1.10,2013-01-21 18:32:00,
2013-01-21 13:47:00,72.7,60.0,30.00,NE,34,0.0,4.0,64,0.00,,,0.05,524,weatherlink.com 1.10,2013-01-21 18:47:00,
2013-01-21 14:02:00,73.7,61.0,29.99,East,82,0.0,3.0,64,0.00,,,0.05,809,weatherlink.com 1.10,2013-01-21 19:02:00,
2013-01-21 14:18:00,74.7,60.0,29.98,SSE,165,2.0,4.0,61,0.00,,,0.05,262,weatherlink.com 1.10,2013-01-21 19:18:00,
2013-01-21 14:33:00,73.9,60.0,29.98,SE,146,0.0,2.0,63,0.00,,,0.05,255,weatherlink.com 1.10,2013-01-21 19:33:00,
2013-01-21 14:48:00,73.9,60.0,29.98,NE,34,1.0,4.0,63,0.00,,,0.05,206,weatherlink.com 1.10,2013-01-21 19:48:00,
2013-01-21 15:03:00,73.5,60.0,29.98,NNE,14,0.0,6.0,63,0.00,,,0.05,151,weatherlink.com 1.10,2013-01-21 20:03:00,
2013-01-21 15:18:00,73.2,60.0,29.98,NNW,341,0.0,1.0,63,0.00,,,0.05,46,weatherlink.com 1.10,2013-01-21 20:18:00,
2013-01-21 15:33:00,72.8,60.0,29.98,NNW,341,0.0,2.0,65,0.00,,,0.05,25,weatherlink.com 1.10,2013-01-21 20:33:00,
2013-01-21 15:48:00,72.4,61.0,29.98,NNW,340,0.0,1.0,67,0.00,,,0.05,63,weatherlink.com 1.10,2013-01-21 20:48:00,
2013-01-21 16:03:00,72.3,60.0,29.98,NNW,340,0.0,2.0,66,0.00,,,0.05,35,weatherlink.com 1.10,2013-01-21 21:03:00,
2013-01-21 16:18:00,72.0,60.0,29.99,NW,318,0.0,4.0,65,0.00,,,0.05,28,weatherlink.com 1.10,2013-01-21 21:18:00,
2013-01-21 16:33:00,71.6,61.0,29.99,NW,317,0.0,1.0,70,0.00,,,0.05,5,weatherlink.com 1.10,2013-01-21 21:33:00,
2013-01-21 16:48:00,70.9,61.0,30.00,North,355,0.0,5.0,71,0.00,,,0.05,11,weatherlink.com 1.10,2013-01-21 21:48:00,
2013-01-21 17:03:00,70.0,61.0,30.00,North,355,0.0,1.0,72,0.00,,,0.05,11,weatherlink.com 1.10,2013-01-21 22:03:00,
2013-01-21 17:18:00,69.4,61.0,30.00,North,355,0.0,1.0,74,0.00,,,0.05,16,weatherlink.com 1.10,2013-01-21 22:18:00,
2013-01-21 17:33:00,69.4,62.0,30.00,East,94,0.0,3.0,78,0.00,,,0.05,7,weatherlink.com 1.10,2013-01-21 22:33:00,
2013-01-21 17:48:00,68.8,62.0,30.00,NE,37,4.0,6.0,79,0.00,,,0.05,5,weatherlink.com 1.10,2013-01-21 22:48:00,
2013-01-21 18:03:00,67.9,60.0,30.00,NE,51,0.0,2.0,75,0.00,,,0.05,0,weatherlink.com 1.10,2013-01-21 23:03:00,
2013-01-21 18:18:00,67.4,59.0,30.01,ENE,61,1.0,2.0,75,0.00,,,0.05,0,weatherlink.com 1.10,2013-01-21 23:18:00,
2013-01-21 18:33:00,66.9,59.0,30.01,ENE,61,0.0,2.0,76,0.00,,,0.05,0,weatherlink.com 1.10,2013-01-21 23:33:00,
2013-01-21 18:48:00,66.5,59.0,30.01,ENE,61,0.0,0.0,76,0.00,,,0.05,0,weatherlink.com 1.10,2013-01-21 23:48:00,
2013-01-21 19:03:00,65.9,58.0,30.01,ENE,61,0.0,0.0,76,0.00,,,0.05,0,weatherlink.com 1.10,2013-01-22 00:03:00,
2013-01-21 19:18:00,65.4,58.0,30.01,ENE,60,0.0,0.0,77,0.00,,,0.05,0,weatherlink.com 1.10,2013-01-22 00:18:00,
2013-01-21 19:33:00,64.8,58.0,30.02,ENE,60,0.0,0.0,78,0.00,,,0.05,0,weatherlink.com 1.10,2013-01-22 00:33:00,
2013-01-21 19:48:00,64.3,58.0,30.02,ENE,61,0.0,0.0,79,0.00,,,0.05,0,weatherlink.com 1.10,2013-01-22 00:48:00,
2013-01-21 20:03:00,63.7,57.0,30.02,ENE,60,0.0,0.0,80,0.00,,,0.05,0,weatherlink.com 1.10,2013-01-22 01:03:00,
2013-01-21 20:18:00,63.3,57.0,30.02,ENE,61,0.0,0.0,80,0.00,,,0.05,0,weatherlink.com 1.10,2013-01-22 01:18:00,
2013-01-21 20:33:00,62.6,56.0,30.03,ENE,61,0.0,0.0,80,0.00,,,0.05,0,weatherlink.com 1.10,2013-01-22 01:33:00,
2013-01-21 20:48:00,61.9,56.0,30.03,ENE,61,0.0,0.0,82,0.00,,,0.05,0,weatherlink.com 1.10,2013-01-22 01:48:00,
2013-01-21 21:03:00,61.3,56.0,30.03,ENE,60,0.0,1.0,83,0.00,,,0.05,0,weatherlink.com 1.10,2013-01-22 02:03:00,
2013-01-21 21:18:00,60.9,56.0,30.04,ENE,60,0.0,2.0,83,0.00,,,0.05,0,weatherlink.com 1.10,2013-01-22 02:18:00,
2013-01-21 21:33:00,60.4,55.0,30.04,ENE,60,0.0,1.0,83,0.00,,,0.05,0,weatherlink.com 1.10,2013-01-22 02:33:00,
2013-01-21 21:48:00,59.9,55.0,30.04,ENE,61,0.0,2.0,84,0.00,,,0.05,0,weatherlink.com 1.10,2013-01-22 02:48:00,
2013-01-21 22:03:00,59.8,55.0,30.05,ENE,60,0.0,1.0,84,0.00,,,0.05,0,weatherlink.com 1.10,2013-01-22 03:03:00,
2013-01-21 22:18:00,59.6,55.0,30.05,ENE,61,0.0,0.0,85,0.00,,,0.05,0,weatherlink.com 1.10,2013-01-22 03:18:00,
2013-01-21 22:33:00,59.7,55.0,30.05,ENE,61,0.0,0.0,85,0.00,,,0.05,0,weatherlink.com 1.10,2013-01-22 03:33:00,
2013-01-21 22:48:00,59.7,55.0,30.05,ENE,61,0.0,0.0,85,0.00,,,0.05,0,weatherlink.com 1.10,2013-01-22 03:48:00,
2013-01-21 23:03:00,59.9,56.0,30.06,ENE,61,0.0,0.0,86,0.00,,,0.05,0,weatherlink.com 1.10,2013-01-22 04:03:00,
2013-01-21 23:18:00,60.3,56.0,30.05,ENE,60,0.0,2.0,85,0.00,,,0.05,0,weatherlink.com 1.10,2013-01-22 04:18:00,
2013-01-21 23:33:00,60.5,56.0,30.05,ENE,60,0.0,2.0,84,0.00,,,0.05,0,weatherlink.com 1.10,2013-01-22 04:33:00,
2013-01-21 23:48:00,60.5,56.0,30.04,ENE,60,0.0,1.0,84,0.00,,,0.05,0,weatherlink.com 1.10,2013-01-22 04:48:00,